createdAt,value
2019-04-28T00:02:08.566Z,101222.44
2019-04-28T00:04:55.746Z,101229.14
2019-04-28T00:07:25.062Z,101229.03
2019-04-28T00:09:54.350Z,101229.03
2019-04-28T00:12:23.648Z,101231.35
2019-04-28T00:14:52.948Z,101231.35
2019-04-28T00:17:22.249Z,101222.59
2019-04-28T00:19:52.129Z,101222.59
2019-04-28T00:22:32.025Z,101220.04
2019-04-28T00:25:06.030Z,101224.73
2019-04-28T00:27:35.331Z,101223.11
2019-04-28T00:30:07.557Z,101225.53
2019-04-28T00:32:42.810Z,101215.46
2019-04-28T00:35:12.142Z,101215.76
2019-04-28T00:37:41.834Z,101215.76
2019-04-28T00:40:12.470Z,101222.06
2019-04-28T00:42:41.718Z,101224.31
2019-04-28T00:45:12.662Z,101224.31
2019-04-28T00:47:42.788Z,101212.63
2019-04-28T00:50:12.565Z,101222.69
2019-04-28T00:52:41.971Z,101218.34
2019-04-28T00:55:11.329Z,101215.41
2019-04-28T00:57:41.012Z,101208.39
2019-04-28T01:00:11.955Z,101208.39
2019-04-28T01:02:41.902Z,101202.98
2019-04-28T01:05:12.656Z,101207.28
2019-04-28T01:07:41.965Z,101216.50
2019-04-28T01:10:14.764Z,101219.51
2019-04-28T01:12:46.502Z,101217.13
2019-04-28T01:15:17.341Z,101217.13
2019-04-28T01:17:54.262Z,101219.80
2019-04-28T01:20:24.880Z,101219.80
2019-04-28T01:22:54.136Z,101207.50
2019-04-28T01:25:23.346Z,101210.95
2019-04-28T01:27:53.960Z,101220.22
2019-04-28T01:30:34.378Z,101220.22
2019-04-28T01:33:05.220Z,101217.19
2019-04-28T01:35:34.392Z,101220.34
2019-04-28T01:38:03.616Z,101219.37
2019-04-28T01:40:32.806Z,101220.56
2019-04-28T01:43:02.110Z,101218.52
2019-04-28T01:45:31.380Z,101212.05
2019-04-28T01:48:02.278Z,101216.02
2019-04-28T01:50:31.651Z,101218.77
2019-04-28T01:53:01.048Z,101207.97
2019-04-28T01:55:30.283Z,101215.63
2019-04-28T01:57:59.711Z,101215.63
2019-04-28T02:00:46.842Z,101209.84
2019-04-28T02:03:16.102Z,101209.38
2019-04-28T02:05:46.608Z,101210.70
2019-04-28T02:08:15.798Z,101204.08
2019-04-28T02:10:45.182Z,101211.20
2019-04-28T02:13:14.370Z,101210.88
2019-04-28T02:15:43.599Z,101181.67
2019-04-28T02:18:12.799Z,101209.31
2019-04-28T02:20:43.683Z,101208.30
2019-04-28T02:23:14.543Z,101208.30
2019-04-28T02:25:43.829Z,101214.66
2019-04-28T02:28:13.035Z,101220.70
2019-04-28T02:30:49.215Z,101215.95
2019-04-28T02:33:13.222Z,101225.42
2019-04-28T02:35:42.621Z,101232.16
2019-04-28T02:38:11.898Z,101212.55
2019-04-28T02:40:41.189Z,101232.19
2019-04-28T02:43:11.457Z,101229.69
2019-04-28T02:45:41.392Z,101223.71
2019-04-28T02:48:12.379Z,101222.21
2019-04-28T02:50:55.307Z,101221.19
2019-04-28T02:53:33.775Z,101221.41
2019-04-28T02:56:03.383Z,101226.60
2019-04-28T02:58:32.707Z,101223.55
2019-04-28T03:01:12.561Z,101223.49
2019-04-28T03:03:32.947Z,101229.02
2019-04-28T03:06:02.245Z,101231.67
2019-04-28T03:08:31.547Z,101227.52
2019-04-28T03:11:01.220Z,101229.85
2019-04-28T03:13:31.365Z,101229.85
2019-04-28T03:16:01.817Z,101235.17
2019-04-28T03:18:31.863Z,101235.17
2019-04-28T03:21:04.219Z,101238.11
2019-04-28T03:23:32.250Z,101241.59
2019-04-28T03:26:03.164Z,101242.27
2019-04-28T03:28:36.889Z,101238.69
2019-04-28T03:31:36.583Z,101234.50
2019-04-28T03:33:48.033Z,101240.66
2019-04-28T03:36:15.390Z,101246.62
2019-04-28T03:38:43.281Z,101245.20
2019-04-28T03:41:12.504Z,101243.77
2019-04-28T03:43:41.820Z,101248.42
2019-04-28T03:46:21.433Z,101247.36
2019-04-28T03:48:51.131Z,101249.55
2019-04-28T03:51:21.326Z,101253.09
2019-04-28T03:53:51.614Z,101249.06
2019-04-28T03:56:21.099Z,101256.61
2019-04-28T03:58:50.589Z,101253.50
2019-04-28T04:01:20.695Z,101253.39
2019-04-28T04:03:51.492Z,101255.23
2019-04-28T04:06:22.680Z,101251.84
2019-04-28T04:08:52.034Z,101251.84
2019-04-28T04:11:22.887Z,101254.94
2019-04-28T04:13:56.164Z,101247.94
2019-04-28T04:16:42.023Z,101247.94
2019-04-28T04:19:15.609Z,101251.63
2019-04-28T04:21:44.801Z,101249.49
2019-04-28T04:24:14.015Z,101255.94
2019-04-28T04:26:43.237Z,101250.36
2019-04-28T04:29:12.575Z,101252.94
2019-04-28T04:31:41.819Z,101254.98
2019-04-28T04:34:11.086Z,101254.98
2019-04-28T04:36:41.824Z,101259.53
2019-04-28T04:39:11.234Z,101257.27
2019-04-28T04:41:43.429Z,101257.27
2019-04-28T04:44:11.407Z,101265.78
2019-04-28T04:46:41.460Z,101268.52
2019-04-28T04:49:10.858Z,101268.52
2019-04-28T04:51:43.326Z,101277.89
2019-04-28T04:54:11.024Z,101271.23
2019-04-28T04:56:40.333Z,101271.23
2019-04-28T04:59:10.265Z,101274.32
2019-04-28T05:01:50.340Z,101269.09
2019-04-28T05:04:21.193Z,101269.09
2019-04-28T05:06:50.398Z,101276.52
2019-04-28T05:09:19.752Z,101277.81
2019-04-28T05:11:49.946Z,101279.58
2019-04-28T05:14:19.831Z,101284.61
2019-04-28T05:16:49.821Z,101284.50
2019-04-28T05:19:19.880Z,101289.26
2019-04-28T05:21:49.811Z,101287.97
2019-04-28T05:24:26.986Z,101290.49
2019-04-28T05:26:56.178Z,101290.49
2019-04-28T05:29:26.831Z,101294.17
2019-04-28T05:31:59.723Z,101294.17
2019-04-28T05:34:27.227Z,101294.39
2019-04-28T05:36:56.431Z,101300.22
2019-04-28T05:39:25.630Z,101301.17
2019-04-28T05:41:54.847Z,101305.91
2019-04-28T05:44:24.071Z,101305.91
2019-04-28T05:46:53.270Z,101301.41
2019-04-28T05:49:29.895Z,101307.42
2019-04-28T05:52:16.775Z,101307.42
2019-04-28T05:54:50.068Z,101312.09
2019-04-28T05:57:39.833Z,101312.09
2019-04-28T06:00:23.339Z,101305.05
2019-04-28T06:02:56.819Z,101308.91
2019-04-28T06:05:25.091Z,101308.91
2019-04-28T06:07:59.627Z,101318.16
2019-04-28T06:10:29.913Z,101333.36
2019-04-28T06:12:59.741Z,101333.36
2019-04-28T06:15:29.552Z,101330.20
2019-04-28T06:18:00.138Z,101339.31
2019-04-28T06:20:30.341Z,101348.07
2019-04-28T06:22:59.639Z,101355.35
2019-04-28T06:25:28.877Z,101355.35
2019-04-28T06:27:58.142Z,101357.08
2019-04-28T06:30:28.366Z,101357.08
2019-04-28T06:33:07.579Z,101358.44
2019-04-28T06:35:28.514Z,101358.44
2019-04-28T06:37:57.718Z,101351.67
2019-04-28T06:40:26.923Z,101366.83
2019-04-28T06:42:56.132Z,101368.65
2019-04-28T06:45:25.398Z,101370.23
2019-04-28T06:47:54.620Z,101370.23
2019-04-28T06:50:23.783Z,101370.50
2019-04-28T06:52:52.990Z,101371.44
2019-04-28T06:55:22.208Z,101383.00
2019-04-28T06:57:51.419Z,101381.64
2019-04-28T07:00:20.720Z,101389.47
2019-04-28T07:02:49.900Z,101387.66
2019-04-28T07:05:19.121Z,101385.23
2019-04-28T07:07:48.384Z,101384.73
2019-04-28T07:10:17.584Z,101387.81
2019-04-28T07:12:46.800Z,101396.30
2019-04-28T07:15:16.103Z,101402.28
2019-04-28T07:17:45.326Z,101405.33
2019-04-28T07:20:16.525Z,101403.39
2019-04-28T07:22:45.727Z,101402.00
2019-04-28T07:25:14.933Z,101406.37
2019-04-28T07:27:44.167Z,101417.04
2019-04-28T07:30:16.264Z,101414.22
2019-04-28T07:32:45.488Z,101416.19
2019-04-28T07:35:14.697Z,101422.58
2019-04-28T07:37:43.901Z,101418.58
2019-04-28T07:40:13.269Z,101419.92
2019-04-28T07:42:42.487Z,101423.63
2019-04-28T07:45:11.795Z,101426.48
2019-04-28T07:47:41.059Z,101427.01
2019-04-28T07:50:10.522Z,101425.62
2019-04-28T07:52:44.525Z,101421.66
2019-04-28T07:55:13.722Z,101427.60
2019-04-28T07:57:42.919Z,101431.54
2019-04-28T08:00:13.980Z,101432.72
2019-04-28T08:02:43.191Z,101428.12
2019-04-28T08:05:12.471Z,101433.53
2019-04-28T08:07:41.679Z,101431.95
2019-04-28T08:10:11.145Z,101431.95
2019-04-28T08:12:40.363Z,101437.64
2019-04-28T08:15:09.847Z,101441.20
2019-04-28T08:17:39.051Z,101445.06
2019-04-28T08:20:08.488Z,101454.80
2019-04-28T08:22:37.751Z,101457.14
2019-04-28T08:25:07.275Z,101462.42
2019-04-28T08:27:36.470Z,101463.40
2019-04-28T08:30:06.306Z,101463.40
2019-04-28T08:32:37.176Z,101463.01
2019-04-28T08:35:07.341Z,101463.38
2019-04-28T08:37:36.563Z,101466.94
2019-04-28T08:40:05.957Z,101466.86
2019-04-28T08:42:35.129Z,101466.86
2019-04-28T08:45:06.811Z,101474.33
2019-04-28T08:47:36.004Z,101483.33
2019-04-28T08:50:06.356Z,101483.33
2019-04-28T08:52:35.607Z,101492.98
2019-04-28T08:55:11.725Z,101492.98
2019-04-28T08:57:40.955Z,101492.55
2019-04-28T09:00:12.463Z,101491.31
2019-04-28T09:02:41.734Z,101491.31
2019-04-28T09:05:11.111Z,101500.00
2019-04-28T09:07:40.321Z,101500.00
2019-04-28T09:10:09.764Z,101507.46
2019-04-28T09:12:38.964Z,101510.48
2019-04-28T09:15:08.735Z,101510.48
2019-04-28T09:17:37.969Z,101515.55
2019-04-28T09:20:08.670Z,101518.86
2019-04-28T09:22:37.903Z,101518.95
2019-04-28T09:25:08.105Z,101527.30
2019-04-28T09:27:37.371Z,101527.30
2019-04-28T09:30:07.079Z,101532.84
2019-04-28T09:32:36.375Z,101532.84
2019-04-28T09:35:07.053Z,101534.64
2019-04-28T09:37:36.231Z,101531.84
2019-04-28T09:40:10.722Z,101543.52
2019-04-28T09:42:44.323Z,101543.52
2019-04-28T09:45:24.336Z,101539.22
2019-04-28T09:47:53.695Z,101538.59
2019-04-28T09:50:23.001Z,101541.59
2019-04-28T09:52:52.270Z,101544.23
2019-04-28T09:55:21.550Z,101547.45
2019-04-28T09:57:50.820Z,101553.39
2019-04-28T10:00:20.155Z,101545.52
2019-04-28T10:02:49.551Z,101545.52
2019-04-28T10:05:19.026Z,101549.26
2019-04-28T10:07:48.279Z,101549.26
2019-04-28T10:10:18.036Z,101557.78
2019-04-28T10:12:47.342Z,101557.78
2019-04-28T10:15:16.923Z,101558.81
2019-04-28T10:17:46.207Z,101558.38
2019-04-28T10:20:16.280Z,101558.38
2019-04-28T10:22:45.609Z,101568.55
2019-04-28T10:25:15.243Z,101568.55
2019-04-28T10:27:44.485Z,101570.97
2019-04-28T10:30:14.431Z,101572.64
2019-04-28T10:32:43.719Z,101571.02
2019-04-28T10:35:13.505Z,101571.02
2019-04-28T10:37:45.461Z,101567.17
2019-04-28T10:40:21.015Z,101584.59
2019-04-28T10:42:50.263Z,101584.59
2019-04-28T10:45:24.058Z,101586.37
2019-04-28T10:47:53.367Z,101586.37
2019-04-28T10:50:22.598Z,101581.22
2019-04-28T10:52:51.955Z,101584.38
2019-04-28T10:55:21.309Z,101590.45
2019-04-28T10:57:50.523Z,101591.67
2019-04-28T11:00:21.565Z,101591.03
2019-04-28T11:02:58.534Z,101590.85
2019-04-28T11:05:32.448Z,101590.32
2019-04-28T11:08:03.327Z,101591.91
2019-04-28T11:10:32.591Z,101591.85
2019-04-28T11:13:01.883Z,101596.89
2019-04-28T11:15:32.835Z,101590.80
2019-04-28T11:18:02.379Z,101600.47
2019-04-28T11:20:32.176Z,101594.80
2019-04-28T11:23:04.009Z,101650.20
2019-04-28T11:25:33.308Z,101596.06
2019-04-28T11:28:02.545Z,101607.00
2019-04-28T11:30:31.707Z,101607.00
2019-04-28T11:33:20.361Z,101611.59
2019-04-28T11:35:50.683Z,101612.27
2019-04-28T11:38:21.468Z,101617.50
2019-04-28T11:40:50.772Z,101621.11
2019-04-28T11:43:20.041Z,101617.62
2019-04-28T11:45:49.429Z,101619.09
2019-04-28T11:48:18.622Z,101623.39
2019-04-28T11:50:47.924Z,101617.80
2019-04-28T11:53:17.132Z,101626.72
2019-04-28T11:55:46.357Z,101625.03
2019-04-28T11:58:15.724Z,101635.48
2019-04-28T12:00:45.146Z,101638.84
2019-04-28T12:03:14.446Z,101635.20
2019-04-28T12:05:45.387Z,101632.77
2019-04-28T12:08:14.683Z,101637.69
2019-04-28T12:10:57.239Z,101641.92
2019-04-28T12:13:46.254Z,101645.05
2019-04-28T12:16:23.177Z,101644.20
2019-04-28T12:19:10.209Z,101647.55
2019-04-28T12:21:39.552Z,101650.80
2019-04-28T12:24:09.125Z,101647.55
2019-04-28T12:26:38.424Z,101647.06
2019-04-28T12:29:07.721Z,101653.95
2019-04-28T12:31:37.001Z,101642.30
2019-04-28T12:34:06.243Z,101664.27
2019-04-28T12:36:35.470Z,101661.84
2019-04-28T12:39:08.865Z,101659.83
2019-04-28T12:41:38.407Z,101665.36
2019-04-28T12:44:08.382Z,101666.06
2019-04-28T12:46:37.785Z,101674.33
2019-04-28T12:49:08.661Z,101676.95
2019-04-28T12:51:38.093Z,101685.56
2019-04-28T12:54:09.059Z,101684.27
2019-04-28T12:56:38.411Z,101684.27
2019-04-28T12:59:18.397Z,101683.52
2019-04-28T13:02:01.239Z,101686.36
2019-04-28T13:04:32.177Z,101684.63
2019-04-28T13:07:02.721Z,101684.63
2019-04-28T13:09:32.713Z,101689.43
2019-04-28T13:12:02.139Z,101694.50
2019-04-28T13:14:31.783Z,101686.09
2019-04-28T13:17:01.141Z,101694.41
2019-04-28T13:19:30.413Z,101692.80
2019-04-28T13:21:59.868Z,101684.10
2019-04-28T13:24:29.192Z,101684.10
2019-04-28T13:26:58.371Z,101694.11
2019-04-28T13:29:27.568Z,101689.07
2019-04-28T13:31:56.818Z,101690.97
2019-04-28T13:34:27.988Z,101690.97
2019-04-28T13:36:57.309Z,101690.97
2019-04-28T13:39:33.737Z,101689.24
2019-04-28T13:42:03.145Z,101699.75
2019-04-28T13:44:50.159Z,101705.92
2019-04-28T13:47:19.549Z,101705.92
2019-04-28T13:49:51.354Z,101701.54
2019-04-28T13:52:20.628Z,101694.97
2019-04-28T13:54:51.459Z,101708.10
2019-04-28T13:57:20.689Z,101705.95
2019-04-28T13:59:51.511Z,101705.95
2019-04-28T14:02:41.324Z,101713.89
2019-04-28T14:05:24.285Z,101710.02
2019-04-28T14:07:53.585Z,101713.59
2019-04-28T14:10:22.797Z,101713.59
2019-04-28T14:12:52.139Z,101710.00
2019-04-28T14:15:21.316Z,101710.00
2019-04-28T14:17:50.555Z,101714.98
2019-04-28T14:20:19.802Z,101712.36
2019-04-28T14:22:48.926Z,101715.66
2019-04-28T14:25:18.140Z,101712.31
2019-04-28T14:27:47.318Z,101720.09
2019-04-28T14:30:17.687Z,101723.06
2019-04-28T14:32:46.918Z,101731.52
2019-04-28T14:35:16.713Z,101723.70
2019-04-28T14:37:45.942Z,101729.38
2019-04-28T14:40:15.406Z,101725.55
2019-04-28T14:42:46.564Z,101724.00
2019-04-28T14:45:17.595Z,101728.35
2019-04-28T14:47:47.117Z,101730.70
2019-04-28T14:50:16.396Z,101731.50
2019-04-28T14:52:45.632Z,101732.23
2019-04-28T14:55:15.105Z,101735.47
2019-04-28T14:57:44.337Z,101729.27
2019-04-28T15:00:15.645Z,101721.07
2019-04-28T15:02:55.214Z,101736.53
2019-04-28T15:05:39.287Z,101734.38
2019-04-28T15:08:16.060Z,101733.59
2019-04-28T15:10:52.699Z,101733.84
2019-04-28T15:13:23.372Z,101736.72
2019-04-28T15:15:56.688Z,101742.58
2019-04-28T15:18:25.951Z,101738.80
2019-04-28T15:20:55.235Z,101733.73
2019-04-28T15:23:24.478Z,101744.50
2019-04-28T15:25:54.838Z,101748.88
2019-04-28T15:28:24.144Z,101731.60
2019-04-28T15:30:53.362Z,101731.60
2019-04-28T15:33:22.820Z,101753.23
2019-04-28T15:35:52.013Z,101757.27
2019-04-28T15:38:21.126Z,101763.80
2019-04-28T15:40:50.431Z,101762.68
2019-04-28T15:43:19.700Z,101761.88
2019-04-28T15:45:48.897Z,101767.52
2019-04-28T15:48:18.104Z,101765.50
2019-04-28T15:50:47.411Z,101766.55
2019-04-28T15:53:16.650Z,101769.44
2019-04-28T15:56:02.462Z,101773.82
2019-04-28T15:58:33.594Z,101780.42
2019-04-28T16:01:02.997Z,101778.17
2019-04-28T16:03:32.202Z,101779.13
2019-04-28T16:06:01.496Z,101786.59
2019-04-28T16:08:30.695Z,101787.01
2019-04-28T16:10:59.869Z,101793.60
2019-04-28T16:13:29.084Z,101793.34
2019-04-28T16:15:58.297Z,101796.09
2019-04-28T16:18:27.696Z,101797.02
2019-04-28T16:20:56.894Z,101798.49
2019-04-28T16:23:26.155Z,101806.22
2019-04-28T16:25:55.389Z,101807.95
2019-04-28T16:28:24.587Z,101811.66
2019-04-28T16:30:53.826Z,101815.22
2019-04-28T16:33:23.089Z,101815.89
2019-04-28T16:35:52.286Z,101818.20
2019-04-28T16:38:21.492Z,101810.86
2019-04-28T16:40:54.985Z,101810.86
2019-04-28T16:43:27.582Z,101815.28
2019-04-28T16:45:56.777Z,101820.59
2019-04-28T16:48:25.995Z,101824.89
2019-04-28T16:50:55.261Z,101825.43
2019-04-28T16:53:25.278Z,101825.43
2019-04-28T16:55:56.176Z,101834.59
2019-04-28T17:01:38.717Z,101834.33
2019-04-28T17:04:07.946Z,101834.33
2019-04-28T17:06:37.261Z,101842.91
2019-04-28T17:09:07.569Z,101842.91
2019-04-28T17:11:36.767Z,101849.38
2019-04-28T17:14:05.974Z,101854.48
2019-04-28T17:16:35.179Z,101854.48
2019-04-28T17:19:04.553Z,101856.63
2019-04-28T17:21:33.871Z,101857.91
2019-04-28T17:24:03.217Z,101855.28
2019-04-28T17:26:32.462Z,101866.85
2019-04-28T17:29:01.762Z,101866.32
2019-04-28T17:31:30.978Z,101876.68
2019-04-28T17:34:00.281Z,101866.17
2019-04-28T17:36:29.581Z,101878.47
2019-04-28T17:38:58.721Z,101886.78
2019-04-28T17:41:28.116Z,101894.09
2019-04-28T17:43:57.309Z,101898.45
2019-04-28T17:46:26.571Z,101896.57
2019-04-28T17:48:57.509Z,101913.64
2019-04-28T17:51:26.700Z,101905.73
2019-04-28T17:53:56.014Z,101905.45
2019-04-28T17:56:25.209Z,101918.59
2019-04-28T17:58:54.422Z,101923.36
2019-04-28T18:01:25.263Z,101916.74
2019-04-28T18:03:58.641Z,101920.14
2019-04-28T18:06:29.514Z,101920.14
2019-04-28T18:08:58.712Z,101922.79
2019-04-28T18:11:28.086Z,101927.83
2019-04-28T18:13:57.386Z,101927.83
2019-04-28T18:16:40.048Z,101931.79
2019-04-28T18:19:16.712Z,101940.73
2019-04-28T18:21:45.966Z,101943.45
2019-04-28T18:24:15.184Z,101950.48
2019-04-28T18:26:44.380Z,101950.48
2019-04-28T18:29:13.578Z,101953.36
2019-04-28T18:31:47.268Z,101952.13
2019-04-28T18:34:18.137Z,101961.69
2019-04-28T18:37:05.567Z,101961.69
2019-04-28T18:39:52.615Z,101973.16
2019-04-28T18:42:26.651Z,101974.16
2019-04-28T18:44:55.958Z,101966.67
2019-04-28T18:47:25.189Z,101976.25
2019-04-28T18:49:54.420Z,101976.25
2019-04-28T18:52:23.672Z,101975.34
2019-04-28T18:54:52.956Z,101985.23
2019-04-28T18:57:22.167Z,101985.23
2019-04-28T18:59:51.358Z,101994.62
2019-04-28T19:02:22.312Z,101994.62
2019-04-28T19:04:51.602Z,101997.52
2019-04-28T19:07:49.983Z,101997.52
2019-04-28T19:10:40.223Z,101987.80
2019-04-28T19:13:11.521Z,102005.44
2019-04-28T19:15:54.336Z,102011.00
2019-04-28T19:18:27.941Z,102011.00
2019-04-28T19:20:57.150Z,102014.11
2019-04-28T19:23:26.380Z,102025.19
2019-04-28T19:25:55.632Z,102025.19
2019-04-28T19:28:24.862Z,102024.67
2019-04-28T19:30:54.415Z,102031.75
2019-04-28T19:33:23.646Z,102041.64
2019-04-28T19:35:53.048Z,102041.64
2019-04-28T19:38:22.243Z,102040.55
2019-04-28T19:40:51.529Z,102040.55
2019-04-28T19:43:20.740Z,102037.19
2019-04-28T19:45:51.514Z,102039.55
2019-04-28T19:48:20.674Z,102045.34
2019-04-28T19:50:49.873Z,102053.35
2019-04-28T19:53:19.183Z,102055.91
2019-04-28T19:55:56.039Z,102055.91
2019-04-28T19:58:35.986Z,102056.95
2019-04-28T20:01:12.615Z,102056.55
2019-04-28T20:03:41.881Z,102052.38
2019-04-28T20:06:11.111Z,102054.83
2019-04-28T20:08:40.367Z,102060.01
2019-04-28T20:11:09.573Z,102060.01
2019-04-28T20:13:38.792Z,102060.45
2019-04-28T20:16:08.083Z,102060.70
2019-04-28T20:18:37.305Z,102066.84
2019-04-28T20:21:06.599Z,102070.42
2019-04-28T20:23:35.868Z,102065.97
2019-04-28T20:26:05.172Z,102072.58
2019-04-28T20:28:34.415Z,102074.32
2019-04-28T20:31:03.667Z,102075.66
2019-04-28T20:33:32.867Z,102078.52
2019-04-28T20:36:06.676Z,102078.14
2019-04-28T20:38:35.875Z,102087.39
2019-04-28T20:41:12.583Z,102087.02
2019-04-28T20:43:41.767Z,102091.88
2019-04-28T20:46:10.991Z,102090.39
2019-04-28T20:48:40.234Z,102096.33
2019-04-28T20:51:09.444Z,102096.03
2019-04-28T20:53:38.687Z,102098.63
2019-04-28T20:56:07.928Z,102095.08
2019-04-28T20:58:37.260Z,102095.52
2019-04-28T21:01:06.523Z,102103.87
2019-04-28T21:03:38.495Z,102108.24
2019-04-28T21:06:06.757Z,102099.37
2019-04-28T21:08:35.982Z,102110.15
2019-04-28T21:11:05.272Z,102092.62
2019-04-28T21:13:52.576Z,102103.91
2019-04-28T21:16:22.019Z,102097.52
2019-04-28T21:18:51.215Z,102097.52
2019-04-28T21:21:20.445Z,102103.53
2019-04-28T21:23:49.687Z,102111.19
2019-04-28T21:26:18.999Z,102107.38
2019-04-28T21:28:48.279Z,102111.80
2019-04-28T21:31:17.507Z,102111.80
2019-04-28T21:33:46.712Z,102112.04
2019-04-28T21:36:15.920Z,102112.04
2019-04-28T21:38:46.783Z,102107.98
2019-04-28T21:41:16.021Z,102107.98
2019-04-28T21:43:46.866Z,102107.70
2019-04-28T21:46:25.694Z,102100.54
2019-04-28T21:48:56.677Z,102100.54
2019-04-28T21:51:25.878Z,102105.30
2019-04-28T21:53:55.094Z,102101.28
2019-04-28T21:56:24.395Z,102110.77
2019-04-28T21:58:53.688Z,102107.18
2019-04-28T22:01:23.609Z,102107.18
2019-04-28T22:03:52.884Z,102115.45
2019-04-28T22:06:22.123Z,102109.38
2019-04-28T22:08:51.406Z,102111.39
2019-04-28T22:11:22.646Z,102111.39
2019-04-28T22:13:51.952Z,102112.66
2019-04-28T22:16:21.204Z,102112.25
2019-04-28T22:18:50.440Z,102112.25
2019-04-28T22:21:19.682Z,102116.19
2019-04-28T22:23:56.276Z,102116.19
2019-04-28T22:26:45.407Z,102092.08
2019-04-28T22:29:15.170Z,102117.53
2019-04-28T22:31:44.966Z,102111.09
2019-04-28T22:34:15.193Z,102126.34
2019-04-28T22:36:45.517Z,102130.88
2019-04-28T22:39:15.244Z,102130.88
2019-04-28T22:41:44.645Z,102137.34
2019-04-28T22:44:14.006Z,102136.83
2019-04-28T22:46:43.302Z,102141.87
2019-04-28T22:49:14.492Z,102141.87
2019-04-28T22:51:43.722Z,102153.97
2019-04-28T22:54:14.624Z,102152.75
